Chisholm Hibbing Airport
KHIB : now visible

Airfield :











YOU CAN JOIN US ON...

 
LOGIN :

Register | Disclaimer

   EN    FR    IT 

 









Legend :    VFR   Marginal VFR   IFR   Intensive IFR   Very Intensive IFR
Visi :
Ceiling :
>= 8 km
>= 3000ft
5 to 8 km
1000 to 3000 ft
1500m to 5 km
500 to 1000 ft
800 to 1500m
200 to 500 ft
< 800m
< 200 ft
Symbols :   Thunderstorms  Fog  Heavy snow  Heavy precipitations  Wind > 20 kt







- Airport Elevation : 1354 ft
- IATA code : HIB


KHIB - Chisholm Hibbing

CURRENT METAR :
  • 201053Z AUTO 00000KT 10SM CLR M18/M21 A3006 RMK AO2 SLP211 T11781206

EXPIRED METARs :
  • 200953Z AUTO 00000KT 10SM CLR M18/M20 A3006 RMK AO2 SLP213 T11831200
  • 200853Z AUTO 00000KT 10SM SCT070 M19/M21 A3008 RMK AO2 SLP221 T11891211 58038
  • 200753Z AUTO 00000KT 10SM CLR M20/M22 A3012 RMK AO2 SLP236 T12001217

TAF KHIB
Valid from the 20 at 06:00 until the 21 at 06:00 UTC


200538Z 2006/2106 VRB03KT P6SM BKN250
FM201300 VRB03KT P6SM VCSH OVC060
FM201600 11005KT 3SM -SN OVC025
FM201800 11006KT 1SM -SN OVC025
FM202100 09007KT 3/4SM -SN OVC012
FM210300 07005KT 3SM -SN OVC014
KZMP FIR / North America



MET'MAP, your aeronautical weather chart ! - Copyright ORBIFLY December 2007 - Disclaimer

ORBIFLY MET'MAP TEAM :

Programming & Development : Alexandra Zaïnal
Concept & Development : Baudouin d'Aumeries
Co-Development & Prog : Marc-Olivier Méhu
Technical & hardware support : Manuel Goepfert

Contact : metmap@orbifly.com




SOURCES & CREDITS :

   NOAA       Earth
Advisory